createdAt,value
2019-01-06T00:27:25.432Z,3.46
2019-01-06T00:30:11.834Z,3.34
2019-01-06T00:32:50.265Z,3.36
2019-01-06T00:35:36.934Z,3.24
2019-01-06T01:24:06.890Z,3.25
2019-01-06T01:40:40.248Z,2.96
2019-01-06T01:43:27.054Z,2.92
2019-01-06T01:49:13.144Z,2.86
2019-01-06T01:51:59.668Z,2.83
2019-01-06T01:54:46.199Z,2.76
2019-01-06T01:57:32.683Z,2.80
2019-01-06T02:00:19.356Z,2.73
2019-01-06T02:03:04.306Z,2.68
2019-01-06T02:05:51.317Z,2.59
2019-01-06T02:08:30.096Z,2.50
2019-01-06T02:25:39.292Z,2.06
2019-01-06T02:37:07.797Z,2.05
2019-01-06T03:11:13.502Z,2.46
2019-01-06T03:16:56.270Z,2.45
2019-01-06T03:28:50.043Z,2.66
2019-01-06T03:39:39.211Z,2.78
2019-01-06T03:42:25.697Z,2.82
2019-01-06T03:48:01.360Z,2.84
2019-01-06T04:10:29.534Z,2.85
2019-01-06T04:19:00.234Z,2.74
2019-01-06T04:40:12.479Z,2.63
2019-01-06T05:10:54.335Z,2.66
2019-01-06T05:13:44.079Z,2.62
2019-01-06T05:30:54.769Z,2.44
2019-01-06T05:45:40.705Z,2.39
2019-01-06T05:57:28.750Z,2.28
2019-01-06T06:00:15.227Z,2.42
2019-01-06T06:03:01.775Z,2.40
2019-01-06T06:05:49.186Z,2.37
2019-01-06T06:08:36.130Z,2.40
2019-01-06T06:14:23.931Z,2.40
2019-01-06T06:26:03.340Z,2.53
2019-01-06T06:28:50.051Z,2.51
2019-01-06T06:35:06.823Z,2.47
2019-01-06T06:38:38.719Z,2.52
2019-01-06T06:53:51.747Z,2.46
2019-01-06T06:57:02.943Z,2.59
2019-01-06T06:59:49.327Z,2.47
2019-01-06T07:29:39.190Z,2.43
2019-01-06T07:40:43.397Z,2.37
2019-01-06T07:43:30.241Z,2.37
2019-01-06T07:46:17.522Z,2.39
2019-01-06T07:49:29.605Z,2.47
2019-01-06T07:55:11.822Z,2.49
2019-01-06T07:57:59.161Z,2.45
2019-01-06T08:01:11.893Z,2.45
2019-01-06T08:03:58.551Z,2.57
2019-01-06T08:06:45.459Z,2.74
2019-01-06T08:09:32.170Z,2.74
2019-01-06T08:12:18.806Z,2.76
2019-01-06T08:15:25.134Z,2.75
2019-01-06T08:18:11.826Z,2.79
2019-01-06T08:21:11.179Z,3.05
2019-01-06T08:23:57.644Z,2.88
2019-01-06T08:26:44.291Z,3.04
2019-01-06T08:29:30.987Z,3.08
2019-01-06T08:32:17.281Z,3.15
2019-01-06T08:35:03.899Z,3.25
2019-01-06T08:37:50.452Z,3.26
2019-01-06T08:40:37.024Z,3.32
2019-01-06T08:43:23.377Z,3.34
2019-01-06T08:46:09.694Z,3.26
2019-01-06T08:48:56.152Z,3.38
2019-01-06T08:51:42.877Z,3.38
2019-01-06T08:54:49.002Z,3.46
2019-01-06T08:57:35.777Z,3.52
2019-01-06T09:00:13.580Z,3.60
2019-01-06T09:03:00.104Z,3.69
2019-01-06T09:05:46.565Z,3.69
2019-01-06T09:08:33.246Z,3.65
2019-01-06T09:11:19.617Z,3.78
2019-01-06T09:14:06.061Z,3.80
2019-01-06T09:16:52.617Z,3.84
2019-01-06T09:19:39.038Z,3.90
2019-01-06T09:22:25.760Z,3.94
2019-01-06T09:25:12.302Z,3.92
2019-01-06T09:27:58.847Z,4.00
2019-01-06T09:30:45.301Z,4.11
2019-01-06T09:33:27.693Z,4.30
2019-01-06T09:36:14.172Z,4.30
2019-01-06T09:39:00.758Z,4.22
2019-01-06T09:41:47.233Z,4.25
2019-01-06T09:44:33.624Z,4.38
2019-01-06T09:47:20.412Z,4.42
2019-01-06T09:50:06.806Z,4.41
2019-01-06T09:52:44.494Z,4.44
2019-01-06T09:55:30.856Z,4.47
2019-01-06T09:58:13.162Z,4.52
2019-01-06T10:00:59.630Z,4.69
2019-01-06T10:03:46.324Z,4.73
2019-01-06T10:06:32.869Z,4.65
2019-01-06T10:09:19.498Z,4.55
2019-01-06T10:12:05.761Z,4.59
2019-01-06T10:14:48.497Z,4.62
2019-01-06T10:17:35.047Z,4.49
2019-01-06T10:20:21.716Z,4.48
2019-01-06T10:23:08.153Z,4.51
2019-01-06T10:25:54.582Z,4.58
2019-01-06T10:28:40.956Z,4.56
2019-01-06T10:31:27.484Z,4.60
2019-01-06T10:34:13.847Z,4.67
2019-01-06T10:37:00.557Z,4.76
2019-01-06T10:39:37.721Z,4.84
2019-01-06T10:42:24.153Z,4.97
2019-01-06T10:45:10.523Z,5.07
2019-01-06T10:47:57.088Z,4.96
2019-01-06T10:50:43.549Z,5.08
2019-01-06T10:53:30.036Z,5.22
2019-01-06T10:56:16.498Z,5.32
2019-01-06T10:59:04.900Z,5.52
2019-01-06T11:01:51.307Z,5.40
2019-01-06T11:04:37.747Z,5.43
2019-01-06T11:07:24.240Z,5.45
2019-01-06T11:10:11.039Z,5.42
2019-01-06T11:12:57.811Z,5.41
2019-01-06T11:15:44.588Z,5.38
2019-01-06T11:18:31.072Z,5.44
2019-01-06T11:21:17.497Z,5.28
2019-01-06T11:24:03.956Z,5.16
2019-01-06T11:26:50.398Z,5.21
2019-01-06T11:29:36.849Z,5.26
2019-01-06T11:32:23.405Z,5.18
2019-01-06T11:35:09.767Z,5.22
2019-01-06T11:37:56.466Z,5.13
2019-01-06T11:40:42.829Z,5.01
2019-01-06T11:43:49.050Z,5.02
2019-01-06T11:46:35.428Z,5.05
2019-01-06T11:49:23.245Z,4.96
2019-01-06T11:52:10.274Z,4.98
2019-01-06T11:54:56.855Z,4.97
2019-01-06T11:57:43.565Z,5.03
2019-01-06T12:00:30.005Z,4.89
2019-01-06T12:03:06.866Z,4.95
2019-01-06T12:05:53.389Z,4.94
2019-01-06T12:08:31.997Z,4.81
2019-01-06T12:11:18.604Z,4.73
2019-01-06T12:13:56.312Z,4.80
2019-01-06T12:16:42.762Z,4.70
2019-01-06T12:19:22.534Z,4.71
2019-01-06T12:22:08.960Z,4.75
2019-01-06T12:24:55.289Z,4.66
2019-01-06T12:27:41.729Z,4.76
2019-01-06T12:30:28.407Z,4.70
2019-01-06T12:33:14.758Z,4.71
2019-01-06T12:36:01.404Z,4.85
2019-01-06T12:38:48.096Z,4.83
2019-01-06T12:41:34.451Z,4.84
2019-01-06T12:44:21.493Z,5.02
2019-01-06T12:47:07.850Z,4.96
2019-01-06T12:49:54.187Z,4.98
2019-01-06T12:52:40.860Z,5.04
2019-01-06T12:55:27.674Z,5.20
2019-01-06T12:58:14.023Z,5.22
2019-01-06T13:01:00.527Z,5.18
2019-01-06T13:03:46.881Z,5.14
2019-01-06T13:06:33.405Z,5.18
2019-01-06T13:09:19.768Z,5.18
2019-01-06T13:12:06.186Z,5.22
2019-01-06T13:14:47.419Z,5.12
2019-01-06T13:17:33.847Z,4.94
2019-01-06T13:20:20.111Z,4.95
2019-01-06T13:23:06.502Z,4.78
2019-01-06T13:25:53.080Z,4.67
2019-01-06T13:28:39.550Z,4.63
2019-01-06T13:31:26.189Z,4.57
2019-01-06T13:34:12.641Z,4.64
2019-01-06T13:36:59.234Z,4.60
2019-01-06T13:39:45.549Z,4.67
2019-01-06T13:42:32.337Z,4.64
2019-01-06T13:45:18.646Z,4.72
2019-01-06T13:48:05.007Z,4.74
2019-01-06T13:50:51.449Z,4.68
2019-01-06T13:53:37.804Z,4.84
2019-01-06T13:56:24.626Z,4.75
2019-01-06T13:59:10.985Z,4.71
2019-01-06T14:01:57.318Z,4.68
2019-01-06T14:04:43.813Z,4.70
2019-01-06T14:07:30.340Z,4.46
2019-01-06T14:10:16.822Z,4.49
2019-01-06T14:12:55.264Z,4.56
2019-01-06T14:16:01.359Z,4.50
2019-01-06T14:18:47.933Z,4.40
2019-01-06T14:21:34.290Z,4.35
2019-01-06T14:24:17.312Z,4.40
2019-01-06T14:27:03.744Z,4.30
2019-01-06T14:29:50.220Z,4.42
2019-01-06T14:32:36.863Z,4.37
2019-01-06T14:35:23.696Z,4.50
2019-01-06T14:38:10.287Z,4.46
2019-01-06T14:40:56.983Z,4.37
2019-01-06T14:43:43.444Z,4.37
2019-01-06T14:46:29.767Z,4.24
2019-01-06T14:49:16.238Z,4.31
2019-01-06T14:52:02.942Z,4.22
2019-01-06T14:54:49.345Z,4.21
2019-01-06T14:57:35.768Z,4.24
2019-01-06T15:03:30.452Z,4.01
2019-01-06T15:06:07.691Z,3.93
2019-01-06T15:08:54.426Z,3.93
2019-01-06T15:11:40.813Z,3.90
2019-01-06T15:14:28.120Z,3.90
2019-01-06T15:17:14.774Z,3.87
2019-01-06T15:20:01.333Z,3.89
2019-01-06T15:22:48.305Z,3.81
2019-01-06T15:25:34.858Z,3.88
2019-01-06T15:28:21.663Z,3.82
2019-01-06T15:31:07.981Z,3.87
2019-01-06T15:33:54.263Z,3.78
2019-01-06T15:36:40.750Z,3.74
2019-01-06T15:39:27.379Z,3.71
2019-01-06T15:42:13.815Z,3.77
2019-01-06T15:45:00.264Z,3.68
2019-01-06T15:50:33.571Z,3.64
2019-01-06T15:53:20.077Z,3.77
2019-01-06T15:56:07.616Z,3.84
2019-01-06T15:58:53.973Z,3.85
2019-01-06T16:01:34.606Z,3.92
2019-01-06T16:04:20.967Z,3.82
2019-01-06T16:07:07.386Z,3.70
2019-01-06T16:09:53.882Z,3.69
2019-01-06T16:12:40.443Z,3.69
2019-01-06T16:15:18.146Z,3.68
2019-01-06T16:18:05.171Z,3.72
2019-01-06T16:20:51.870Z,3.67
2019-01-06T16:23:38.733Z,3.65
2019-01-06T16:26:25.931Z,3.58
2019-01-06T16:29:12.857Z,3.63
2019-01-06T16:31:59.223Z,3.58
2019-01-06T16:34:45.564Z,3.65
2019-01-06T16:37:31.944Z,3.60
2019-01-06T16:43:13.683Z,3.54
2019-01-06T16:46:00.054Z,3.47
2019-01-06T16:48:46.552Z,3.52
2019-01-06T16:51:32.941Z,3.54
2019-01-06T16:54:19.462Z,3.46
2019-01-06T16:57:05.934Z,3.45
2019-01-06T16:59:52.477Z,3.52
2019-01-06T17:02:38.769Z,3.50
2019-01-06T17:05:25.536Z,3.46
2019-01-06T17:08:11.988Z,3.37
2019-01-06T17:10:58.507Z,3.33
2019-01-06T17:13:45.169Z,3.37
2019-01-06T17:16:31.639Z,3.40
2019-01-06T17:19:17.977Z,3.41
2019-01-06T17:22:04.406Z,3.38
2019-01-06T17:24:50.776Z,3.35
2019-01-06T17:27:37.173Z,3.37
2019-01-06T17:30:24.201Z,3.42
2019-01-06T17:33:02.621Z,3.38
2019-01-06T17:35:48.971Z,3.42
2019-01-06T17:38:35.371Z,3.43
2019-01-06T17:41:22.022Z,3.40
2019-01-06T17:44:08.518Z,3.38
2019-01-06T17:47:14.504Z,3.43
2019-01-06T17:50:01.334Z,3.42
2019-01-06T17:52:47.824Z,3.35
2019-01-06T17:55:34.478Z,3.57
2019-01-06T17:58:12.189Z,3.64
2019-01-06T18:00:59.007Z,3.50
2019-01-06T18:03:45.398Z,3.62
2019-01-06T18:06:31.950Z,3.58
2019-01-06T18:09:19.014Z,3.60
2019-01-06T18:12:05.721Z,3.53
2019-01-06T18:14:52.125Z,3.56
2019-01-06T18:17:38.746Z,3.53
2019-01-06T18:20:25.186Z,3.48
2019-01-06T18:23:11.649Z,3.51
2019-01-06T18:25:58.117Z,3.57
2019-01-06T18:28:40.430Z,3.48
2019-01-06T18:31:27.022Z,3.50
2019-01-06T18:34:33.090Z,3.54
2019-01-06T18:37:20.089Z,3.44
2019-01-06T18:40:06.673Z,3.45
2019-01-06T18:42:43.094Z,3.42
2019-01-06T18:45:29.613Z,3.46
2019-01-06T18:48:16.100Z,3.39
2019-01-06T18:51:02.820Z,3.63
2019-01-06T18:53:49.247Z,3.49
2019-01-06T18:56:35.703Z,3.52
2019-01-06T18:59:22.068Z,3.47
2019-01-06T19:02:08.614Z,3.48
2019-01-06T19:04:55.663Z,3.36
2019-01-06T19:07:42.087Z,3.39
2019-01-06T19:10:28.755Z,3.36
2019-01-06T19:13:15.526Z,3.35
2019-01-06T19:16:01.910Z,3.47
2019-01-06T19:18:48.944Z,3.42
2019-01-06T19:21:35.932Z,3.37
2019-01-06T19:24:22.444Z,3.44
2019-01-06T19:27:08.981Z,3.29
2019-01-06T19:29:55.538Z,3.37
2019-01-06T19:32:42.294Z,3.34
2019-01-06T19:35:29.120Z,3.31
2019-01-06T19:38:15.835Z,3.27
2019-01-06T19:41:02.707Z,3.24
2019-01-06T19:43:44.235Z,3.18
2019-01-06T19:46:30.819Z,3.15
2019-01-06T19:49:17.281Z,3.24
2019-01-06T19:52:03.974Z,3.20
2019-01-06T19:54:50.334Z,3.26
2019-01-06T19:57:36.749Z,3.23
2019-01-06T20:00:23.739Z,3.26
2019-01-06T20:03:10.174Z,3.22
2019-01-06T20:05:56.541Z,3.24
2019-01-06T20:08:42.960Z,3.20
2019-01-06T20:11:29.623Z,3.11
2019-01-06T20:14:16.353Z,3.08
2019-01-06T20:17:02.611Z,3.11
2019-01-06T20:19:49.211Z,3.15
2019-01-06T20:22:35.908Z,3.10
2019-01-06T20:25:22.586Z,3.14
2019-01-06T20:28:08.946Z,3.13
2019-01-06T20:30:55.500Z,3.14
2019-01-06T20:33:54.888Z,3.11
2019-01-06T20:36:41.413Z,3.10
2019-01-06T20:39:28.616Z,3.05
2019-01-06T20:42:15.074Z,3.03
2019-01-06T20:45:20.984Z,3.01
2019-01-06T20:48:07.428Z,2.88
2019-01-06T20:50:53.780Z,2.75
2019-01-06T20:53:40.278Z,2.68
2019-01-06T20:56:22.573Z,2.67
2019-01-06T20:59:09.121Z,2.59
2019-01-06T21:01:55.491Z,2.61
2019-01-06T21:04:42.084Z,2.66
2019-01-06T21:07:29.137Z,2.65
2019-01-06T21:10:16.019Z,2.64
2019-01-06T21:13:02.285Z,2.71
2019-01-06T21:15:48.827Z,2.57
2019-01-06T21:18:35.338Z,2.51
2019-01-06T21:21:21.988Z,2.54
2019-01-06T21:24:17.073Z,2.51
2019-01-06T21:27:03.686Z,2.54
2019-01-06T21:29:49.758Z,2.59
2019-01-06T21:32:55.942Z,2.46
2019-01-06T21:35:42.805Z,2.53
2019-01-06T21:38:29.355Z,2.48
2019-01-06T21:41:15.717Z,2.43
2019-01-06T21:44:02.147Z,2.46
2019-01-06T21:46:48.793Z,2.40
2019-01-06T21:49:35.292Z,2.39
2019-01-06T21:52:21.877Z,2.45
2019-01-06T21:55:08.581Z,2.40
2019-01-06T21:57:54.952Z,2.38
2019-01-06T22:00:41.560Z,2.40
2019-01-06T22:03:28.090Z,2.35
2019-01-06T22:06:14.598Z,2.39
2019-01-06T22:09:20.581Z,2.38
2019-01-06T22:12:06.984Z,2.40
2019-01-06T22:14:53.635Z,2.21
2019-01-06T22:17:40.047Z,2.15
2019-01-06T22:20:26.503Z,2.20
2019-01-06T22:23:12.928Z,2.11
2019-01-06T22:25:59.277Z,2.02
2019-01-06T22:28:45.592Z,1.98
2019-01-06T22:31:29.744Z,2.00
2019-01-06T22:34:16.175Z,2.05
2019-01-06T22:37:12.262Z,2.11
2019-01-06T22:39:58.864Z,2.07
2019-01-06T22:42:45.126Z,2.16
2019-01-06T22:45:31.832Z,2.13
2019-01-06T22:48:18.093Z,2.13
2019-01-06T22:50:57.467Z,2.11
2019-01-06T22:53:43.820Z,2.04
2019-01-06T22:56:30.320Z,1.99
2019-01-06T22:59:16.699Z,2.02
2019-01-06T23:02:03.213Z,1.91
2019-01-06T23:04:49.547Z,1.81
2019-01-06T23:07:36.045Z,1.66
2019-01-06T23:10:22.867Z,1.62
2019-01-06T23:13:09.313Z,1.57
2019-01-06T23:15:56.035Z,1.70
2019-01-06T23:18:42.610Z,1.65
2019-01-06T23:21:27.112Z,1.60
2019-01-06T23:24:14.261Z,1.64
2019-01-06T23:27:00.725Z,1.65
2019-01-06T23:29:47.138Z,1.73
2019-01-06T23:32:34.043Z,1.69
2019-01-06T23:35:20.730Z,1.70
2019-01-06T23:38:07.070Z,1.71
2019-01-06T23:40:54.024Z,1.71
2019-01-06T23:43:40.378Z,1.64
2019-01-06T23:46:27.168Z,1.57
2019-01-06T23:49:13.820Z,1.49
2019-01-06T23:52:00.119Z,1.45
2019-01-06T23:54:46.512Z,1.40
2019-01-06T23:57:33.119Z,1.25
